createdAt,value
2022-07-26T00:01:15.828Z,19.58
2022-07-26T00:04:18.592Z,19.52
2022-07-26T00:07:22.587Z,19.57
2022-07-26T00:10:25.165Z,19.60
2022-07-26T00:13:27.854Z,19.58
2022-07-26T00:16:33.353Z,19.54
2022-07-26T00:19:35.961Z,19.49
2022-07-26T00:22:41.581Z,19.45
2022-07-26T00:25:44.173Z,19.54
2022-07-26T00:28:46.820Z,19.53
2022-07-26T00:31:49.514Z,19.45
2022-07-26T00:34:52.561Z,19.50
2022-07-26T00:37:56.509Z,19.42
2022-07-26T00:40:59.124Z,19.39
2022-07-26T00:44:01.747Z,19.42
2022-07-26T00:47:04.590Z,19.30
2022-07-26T00:50:10.487Z,19.20
2022-07-26T00:53:14.568Z,19.21
2022-07-26T00:56:18.330Z,19.26
2022-07-26T00:59:21.398Z,19.25
2022-07-26T01:02:24.052Z,19.10
2022-07-26T01:05:27.449Z,19.19
2022-07-26T01:08:31.843Z,19.15
2022-07-26T01:11:34.445Z,19.18
2022-07-26T01:14:37.042Z,19.06
2022-07-26T01:17:40.087Z,19.03
2022-07-26T01:20:44.591Z,19.16
2022-07-26T01:23:48.794Z,19.06
2022-07-26T01:26:51.414Z,19.04
2022-07-26T01:29:54.029Z,19.10
2022-07-26T01:32:56.681Z,19.06
2022-07-26T01:36:00.086Z,19.17
2022-07-26T01:39:04.440Z,19.26
2022-07-26T01:42:07.311Z,19.13
2022-07-26T01:45:10.878Z,19.13
2022-07-26T01:48:13.515Z,19.02
2022-07-26T01:51:16.102Z,19.01
2022-07-26T01:54:22.262Z,18.99
2022-07-26T01:57:27.154Z,19.01
2022-07-26T02:00:29.941Z,18.88
2022-07-26T02:03:32.518Z,18.84
2022-07-26T02:06:35.152Z,18.89
2022-07-26T02:09:39.785Z,18.74
2022-07-26T02:12:43.078Z,18.78
2022-07-26T02:15:45.731Z,18.31
2022-07-26T02:18:48.399Z,18.55
2022-07-26T02:21:50.976Z,18.47
2022-07-26T02:24:55.226Z,18.53
2022-07-26T02:27:57.843Z,18.68
2022-07-26T02:31:00.461Z,18.36
2022-07-26T02:34:03.739Z,18.27
2022-07-26T02:37:06.397Z,18.43
2022-07-26T02:40:17.027Z,18.41
2022-07-26T02:43:21.539Z,18.35
2022-07-26T02:46:24.170Z,18.44
2022-07-26T02:49:26.832Z,18.67
2022-07-26T02:52:29.468Z,18.70
2022-07-26T02:55:33.466Z,18.58
2022-07-26T02:58:37.387Z,18.48
2022-07-26T03:01:40.087Z,18.38
2022-07-26T03:04:42.831Z,18.32
2022-07-26T03:07:46.453Z,18.01
2022-07-26T03:10:50.374Z,18.12
2022-07-26T03:13:52.955Z,17.98
2022-07-26T03:16:55.533Z,18.03
2022-07-26T03:19:58.176Z,18.29
2022-07-26T03:23:00.751Z,18.27
2022-07-26T03:26:04.728Z,18.33
2022-07-26T03:29:07.481Z,18.35
2022-07-26T03:32:11.231Z,18.35
2022-07-26T03:35:13.831Z,18.35
2022-07-26T03:38:16.446Z,18.30
2022-07-26T03:41:20.397Z,18.21
2022-07-26T03:44:22.999Z,18.33
2022-07-26T03:47:25.575Z,18.21
2022-07-26T03:50:28.200Z,18.03
2022-07-26T03:53:30.774Z,18.11
2022-07-26T03:56:34.763Z,17.92
2022-07-26T03:59:37.593Z,18.08
2022-07-26T04:02:40.178Z,18.17
2022-07-26T04:05:48.955Z,18.07
2022-07-26T04:08:51.958Z,18.00
2022-07-26T04:11:56.011Z,18.07
2022-07-26T04:14:58.532Z,18.22
2022-07-26T04:18:01.114Z,18.20
2022-07-26T04:21:03.951Z,18.05
2022-07-26T04:24:07.506Z,18.31
2022-07-26T04:27:11.613Z,18.31
2022-07-26T04:30:15.636Z,18.16
2022-07-26T04:33:18.429Z,18.36
2022-07-26T04:36:21.047Z,18.31
2022-07-26T04:39:24.583Z,18.56
2022-07-26T04:42:28.631Z,18.31
2022-07-26T04:45:31.343Z,18.53
2022-07-26T04:48:33.980Z,18.63
2022-07-26T04:51:36.610Z,18.72
2022-07-26T04:54:39.203Z,18.71
2022-07-26T04:57:43.687Z,18.78
2022-07-26T05:01:09.124Z,18.66
2022-07-26T05:04:09.450Z,18.87
2022-07-26T05:07:12.271Z,18.85
2022-07-26T05:10:15.660Z,18.72
2022-07-26T05:13:28.725Z,18.90
2022-07-26T05:16:33.422Z,18.97
2022-07-26T05:19:36.079Z,18.88
2022-07-26T05:22:38.873Z,18.95
2022-07-26T05:25:41.511Z,18.70
2022-07-26T05:28:45.516Z,18.77
2022-07-26T05:31:48.107Z,18.87
2022-07-26T05:34:50.994Z,18.75
2022-07-26T05:37:53.594Z,18.80
2022-07-26T05:40:56.211Z,18.66
2022-07-26T05:44:00.177Z,18.77
2022-07-26T05:47:02.846Z,18.93
2022-07-26T05:50:07.080Z,18.74
2022-07-26T05:53:09.645Z,18.89
2022-07-26T05:56:12.243Z,18.73
2022-07-26T05:59:16.206Z,18.99
2022-07-26T06:02:19.103Z,19.26
2022-07-26T06:05:21.841Z,19.21
2022-07-26T06:08:25.693Z,18.59
2022-07-26T06:11:28.587Z,18.56
2022-07-26T06:14:32.508Z,18.65
2022-07-26T06:17:35.142Z,18.70
2022-07-26T06:20:40.073Z,18.63
2022-07-26T06:23:42.683Z,18.73
2022-07-26T06:26:46.554Z,18.64
2022-07-26T06:29:52.528Z,18.80
2022-07-26T06:32:55.155Z,18.72
2022-07-26T06:35:57.766Z,18.72
2022-07-26T06:39:00.378Z,18.87
2022-07-26T06:42:02.969Z,18.87
2022-07-26T06:45:08.012Z,18.69
2022-07-26T06:48:10.603Z,18.82
2022-07-26T06:51:13.340Z,18.89
2022-07-26T06:54:15.942Z,19.14
2022-07-26T06:57:18.537Z,19.22
2022-07-26T07:00:22.523Z,19.32
2022-07-26T07:03:25.091Z,19.31
2022-07-26T07:06:27.681Z,19.21
2022-07-26T07:09:30.404Z,19.40
2022-07-26T07:12:33.087Z,19.55
2022-07-26T07:15:37.010Z,19.56
2022-07-26T07:18:39.595Z,19.38
2022-07-26T07:21:42.217Z,19.48
2022-07-26T07:24:44.852Z,19.04
2022-07-26T07:27:49.450Z,18.96
2022-07-26T07:30:53.418Z,18.88
2022-07-26T07:33:56.035Z,18.81
2022-07-26T07:36:58.674Z,18.54
2022-07-26T07:40:05.071Z,18.85
2022-07-26T07:43:07.658Z,18.69
2022-07-26T07:46:12.547Z,19.04
2022-07-26T07:49:15.743Z,19.31
2022-07-26T07:52:18.483Z,19.32
2022-07-26T07:55:40.398Z,19.24
2022-07-26T07:58:43.800Z,19.43
2022-07-26T08:01:47.739Z,19.68
2022-07-26T08:04:50.391Z,19.85
2022-07-26T08:07:52.945Z,19.78
2022-07-26T08:10:55.722Z,18.94
2022-07-26T08:13:59.421Z,18.52
2022-07-26T08:17:03.545Z,18.40
2022-07-26T08:20:08.021Z,18.48
2022-07-26T08:23:13.434Z,18.89
2022-07-26T08:26:16.079Z,18.90
2022-07-26T08:29:18.847Z,19.28
2022-07-26T08:32:22.866Z,19.33
2022-07-26T08:35:25.520Z,19.23
2022-07-26T08:38:28.212Z,19.32
2022-07-26T08:41:31.718Z,19.09
2022-07-26T08:44:35.110Z,19.31
2022-07-26T08:48:00.731Z,19.49
2022-07-26T08:51:11.117Z,19.69
2022-07-26T08:54:16.158Z,20.04
2022-07-26T08:57:19.750Z,20.33
2022-07-26T09:00:24.964Z,20.53
2022-07-26T09:03:29.169Z,20.35
2022-07-26T09:06:31.760Z,20.37
2022-07-26T09:09:36.329Z,20.47
2022-07-26T09:12:39.951Z,20.74
2022-07-26T09:15:42.539Z,20.61
2022-07-26T09:18:47.510Z,20.58
2022-07-26T09:21:51.314Z,20.36
2022-07-26T09:24:53.954Z,20.80
2022-07-26T09:27:56.715Z,20.78
2022-07-26T09:31:03.122Z,20.43
2022-07-26T09:34:08.788Z,19.52
2022-07-26T09:37:12.616Z,19.37
2022-07-26T09:40:17.466Z,19.33
2022-07-26T09:43:23.906Z,19.13
2022-07-26T09:46:29.618Z,19.34
2022-07-26T09:49:40.884Z,19.92
2022-07-26T09:52:59.082Z,20.30
2022-07-26T09:56:01.697Z,20.67
2022-07-26T09:59:05.763Z,21.13
2022-07-26T10:02:08.405Z,20.98
2022-07-26T10:05:12.344Z,20.72
2022-07-26T10:08:15.504Z,21.17
2022-07-26T10:11:20.136Z,20.84
2022-07-26T10:14:40.435Z,20.72
2022-07-26T10:17:43.670Z,20.76
2022-07-26T10:20:52.352Z,21.41
2022-07-26T10:23:57.907Z,22.14
2022-07-26T10:27:00.526Z,21.37
2022-07-26T10:30:22.846Z,20.78
2022-07-26T10:33:27.263Z,20.58
2022-07-26T10:36:36.448Z,21.49
2022-07-26T10:39:39.832Z,22.22
2022-07-26T10:42:46.328Z,21.90
2022-07-26T10:45:50.187Z,22.13
2022-07-26T10:48:59.811Z,22.56
2022-07-26T10:52:13.515Z,22.59
2022-07-26T10:55:20.559Z,22.31
2022-07-26T10:58:24.504Z,21.61
2022-07-26T11:01:34.252Z,21.92
2022-07-26T11:04:37.846Z,22.60
2022-07-26T11:08:05.030Z,23.74
2022-07-26T11:11:07.584Z,23.59
2022-07-26T11:14:12.713Z,22.71
2022-07-26T11:17:24.222Z,23.82
2022-07-26T11:20:29.775Z,24.39
2022-07-26T11:23:35.895Z,23.31
2022-07-26T11:26:41.747Z,22.69
2022-07-26T11:29:49.055Z,22.22
2022-07-26T11:32:53.987Z,22.66
2022-07-26T11:35:56.598Z,22.66
2022-07-26T11:39:01.155Z,22.46
2022-07-26T11:42:06.321Z,21.92
2022-07-26T11:45:11.201Z,21.41
2022-07-26T11:48:13.965Z,21.42
2022-07-26T11:51:18.263Z,21.15
2022-07-26T11:54:22.570Z,21.18
2022-07-26T11:57:30.687Z,21.71
2022-07-26T12:00:33.968Z,23.31
2022-07-26T12:03:36.591Z,24.30
2022-07-26T12:06:39.997Z,25.16
2022-07-26T12:09:49.326Z,25.37
2022-07-26T12:12:51.976Z,24.60
2022-07-26T12:15:54.657Z,23.59
2022-07-26T12:18:57.298Z,22.23
2022-07-26T12:22:08.620Z,22.16
2022-07-26T12:25:26.299Z,22.78
2022-07-26T12:28:41.460Z,23.97
2022-07-26T12:31:44.108Z,24.78
2022-07-26T12:35:00.592Z,24.13
2022-07-26T12:38:04.544Z,24.32
2022-07-26T12:41:08.538Z,24.85
2022-07-26T12:44:16.753Z,23.85
2022-07-26T12:47:20.075Z,23.91
2022-07-26T12:50:24.817Z,24.64
2022-07-26T12:53:27.513Z,25.32
2022-07-26T12:56:31.541Z,25.46
2022-07-26T12:59:34.215Z,24.69
2022-07-26T13:02:38.316Z,24.92
2022-07-26T13:05:40.925Z,24.98
2022-07-26T13:08:43.488Z,25.01
2022-07-26T13:11:47.466Z,24.91
2022-07-26T13:14:50.697Z,25.22
2022-07-26T13:17:53.303Z,25.58
2022-07-26T13:20:57.863Z,25.73
2022-07-26T13:24:00.481Z,25.52
2022-07-26T13:27:05.981Z,24.56
2022-07-26T13:30:09.507Z,24.27
2022-07-26T13:33:12.437Z,24.54
2022-07-26T13:36:15.049Z,24.65
2022-07-26T13:39:17.815Z,24.10
2022-07-26T13:42:22.091Z,23.98
2022-07-26T13:45:24.754Z,23.98
2022-07-26T13:48:31.937Z,23.78
2022-07-26T13:51:53.986Z,24.59
2022-07-26T13:54:56.558Z,24.66
2022-07-26T13:58:00.533Z,23.72
2022-07-26T14:01:03.919Z,23.61
2022-07-26T14:04:08.219Z,22.76
2022-07-26T14:07:10.933Z,22.70
2022-07-26T14:10:13.511Z,22.47
2022-07-26T14:13:17.490Z,22.55
2022-07-26T14:16:20.759Z,22.53
2022-07-26T14:19:23.350Z,22.57
2022-07-26T14:22:26.408Z,22.10
2022-07-26T14:25:29.322Z,22.08
2022-07-26T14:28:35.948Z,22.48
2022-07-26T14:31:38.611Z,22.67
2022-07-26T14:34:41.713Z,22.72
2022-07-26T14:37:45.632Z,22.45
2022-07-26T14:40:48.783Z,22.54
2022-07-26T14:43:55.494Z,22.36
2022-07-26T14:46:58.294Z,22.25
2022-07-26T14:50:06.225Z,22.04
2022-07-26T14:53:11.566Z,21.85
2022-07-26T14:56:14.210Z,21.75
2022-07-26T14:59:18.127Z,21.71
2022-07-26T15:02:20.919Z,21.64
2022-07-26T15:05:25.234Z,21.54
2022-07-26T15:08:27.874Z,21.38
2022-07-26T15:11:30.514Z,21.35
2022-07-26T15:14:34.504Z,21.52
2022-07-26T15:17:37.609Z,21.41
2022-07-26T15:20:41.574Z,21.52
2022-07-26T15:23:44.495Z,21.61
2022-07-26T15:26:47.142Z,21.67
2022-07-26T15:29:51.134Z,21.07
2022-07-26T15:32:54.449Z,21.35
2022-07-26T15:35:57.236Z,21.23
2022-07-26T15:39:14.654Z,21.16
2022-07-26T15:42:22.053Z,21.12
2022-07-26T15:45:27.881Z,21.20
2022-07-26T15:48:32.768Z,21.01
2022-07-26T15:51:35.480Z,21.15
2022-07-26T15:54:38.122Z,21.04
2022-07-26T15:57:41.225Z,20.88
2022-07-26T16:00:45.220Z,20.96
2022-07-26T16:03:48.743Z,20.87
2022-07-26T16:06:51.407Z,20.87
2022-07-26T16:09:54.249Z,20.68
2022-07-26T16:12:56.875Z,20.81
2022-07-26T16:16:01.043Z,20.61
2022-07-26T16:19:03.804Z,20.62
2022-07-26T16:22:06.515Z,20.67
2022-07-26T16:25:12.538Z,20.64
2022-07-26T16:28:15.212Z,20.12
2022-07-26T16:31:19.222Z,20.22
2022-07-26T16:34:21.817Z,19.94
2022-07-26T16:37:24.691Z,20.11
2022-07-26T16:40:27.341Z,20.27
2022-07-26T16:43:31.278Z,20.46
2022-07-26T16:46:35.362Z,20.35
2022-07-26T16:49:38.034Z,20.25
2022-07-26T16:52:40.770Z,19.80
2022-07-26T16:55:45.283Z,19.90
2022-07-26T16:58:48.026Z,19.96
2022-07-26T17:01:52.071Z,19.71
2022-07-26T17:04:57.122Z,19.77
2022-07-26T17:07:59.771Z,19.52
2022-07-26T17:11:02.539Z,19.48
2022-07-26T17:14:05.201Z,19.56
2022-07-26T17:17:09.213Z,19.51
2022-07-26T17:20:12.501Z,19.60
2022-07-26T17:23:18.265Z,19.72
2022-07-26T17:26:20.930Z,19.66
2022-07-26T17:29:23.509Z,19.39
2022-07-26T17:32:27.544Z,19.45
2022-07-26T17:35:30.243Z,19.35
2022-07-26T17:38:32.871Z,19.12
2022-07-26T17:41:36.941Z,19.37
2022-07-26T17:44:43.138Z,19.19
2022-07-26T17:47:47.403Z,19.13
2022-07-26T17:50:50.019Z,19.10
2022-07-26T17:53:53.391Z,19.14
2022-07-26T17:56:57.091Z,19.24
2022-07-26T18:00:04.441Z,19.29
2022-07-26T18:03:10.188Z,19.38
2022-07-26T18:06:12.975Z,19.28
2022-07-26T18:09:15.626Z,19.22
2022-07-26T18:12:18.270Z,19.39
2022-07-26T18:15:21.098Z,19.36
2022-07-26T18:18:25.092Z,19.37
2022-07-26T18:21:28.198Z,19.11
2022-07-26T18:24:30.927Z,19.12
2022-07-26T18:27:33.935Z,19.05
2022-07-26T18:30:36.675Z,18.98
2022-07-26T18:33:40.674Z,19.12
2022-07-26T18:36:43.309Z,19.02
2022-07-26T18:39:46.176Z,18.79
2022-07-26T18:42:49.098Z,18.73
2022-07-26T18:45:51.849Z,18.67
2022-07-26T18:48:56.054Z,18.41
2022-07-26T18:52:05.939Z,18.59
2022-07-26T18:55:13.080Z,18.31
2022-07-26T18:58:17.104Z,18.58
2022-07-26T19:01:22.346Z,18.30
2022-07-26T19:04:26.480Z,18.20
2022-07-26T19:07:29.604Z,18.24
2022-07-26T19:10:32.258Z,18.10
2022-07-26T19:13:34.937Z,18.18
2022-07-26T19:16:37.575Z,18.24
2022-07-26T19:19:42.865Z,18.20
2022-07-26T19:22:47.216Z,18.25
2022-07-26T19:25:49.799Z,18.30
2022-07-26T19:28:52.414Z,18.21
2022-07-26T19:31:55.049Z,18.21
2022-07-26T19:34:59.066Z,18.20
2022-07-26T19:38:01.771Z,17.83
2022-07-26T19:41:04.430Z,17.89
2022-07-26T19:44:07.006Z,17.82
2022-07-26T19:47:09.667Z,17.92
2022-07-26T19:50:14.181Z,17.84
2022-07-26T19:53:17.605Z,17.90
2022-07-26T19:56:20.190Z,18.02
2022-07-26T19:59:23.976Z,17.97
2022-07-26T20:02:27.277Z,18.00
2022-07-26T20:05:31.910Z,17.92
2022-07-26T20:08:36.083Z,17.97
2022-07-26T20:11:38.811Z,17.92
2022-07-26T20:14:41.515Z,17.92
2022-07-26T20:17:44.116Z,17.87
2022-07-26T20:20:48.058Z,17.82
2022-07-26T20:23:50.756Z,17.77
2022-07-26T20:26:53.576Z,17.72
2022-07-26T20:30:00.746Z,17.55
2022-07-26T20:33:03.944Z,17.61
2022-07-26T20:36:08.161Z,17.73
2022-07-26T20:39:11.172Z,17.88
2022-07-26T20:42:15.508Z,17.88
2022-07-26T20:45:25.114Z,18.06
2022-07-26T20:48:27.782Z,17.69
2022-07-26T20:51:31.771Z,17.89
2022-07-26T20:54:34.452Z,17.92
2022-07-26T20:57:37.594Z,17.97
2022-07-26T21:00:40.354Z,17.91
2022-07-26T21:03:42.996Z,17.79
2022-07-26T21:06:46.965Z,17.83
2022-07-26T21:09:49.550Z,17.88
2022-07-26T21:12:52.958Z,17.71
2022-07-26T21:15:55.587Z,17.79
2022-07-26T21:18:58.217Z,17.50
2022-07-26T21:22:02.244Z,17.71
2022-07-26T21:25:05.590Z,17.57
2022-07-26T21:28:08.217Z,17.58
2022-07-26T21:31:10.836Z,17.65
2022-07-26T21:34:13.505Z,17.37
2022-07-26T21:37:18.003Z,17.49
2022-07-26T21:40:20.609Z,17.30
2022-07-26T21:43:23.255Z,17.32
2022-07-26T21:46:26.093Z,17.37
2022-07-26T21:49:28.793Z,17.40
2022-07-26T21:52:32.779Z,17.32
2022-07-26T21:55:35.355Z,17.37
2022-07-26T21:58:38.801Z,17.39
2022-07-26T22:01:41.479Z,17.26
2022-07-26T22:04:45.489Z,17.26
2022-07-26T22:07:49.473Z,17.25
2022-07-26T22:10:52.723Z,17.23
2022-07-26T22:13:55.902Z,17.28
2022-07-26T22:16:58.637Z,17.28
2022-07-26T22:20:01.309Z,17.35
2022-07-26T22:23:07.217Z,17.31
2022-07-26T22:26:09.918Z,17.13
2022-07-26T22:29:12.760Z,17.03
2022-07-26T22:32:15.647Z,17.01
2022-07-26T22:35:18.527Z,16.95
2022-07-26T22:38:22.631Z,17.03
2022-07-26T22:41:25.261Z,17.06
2022-07-26T22:44:27.885Z,16.98
2022-07-26T22:47:30.530Z,17.08
2022-07-26T22:50:33.861Z,17.14
2022-07-26T22:53:37.847Z,17.15
2022-07-26T22:56:41.988Z,17.21
2022-07-26T22:59:44.625Z,17.13
2022-07-26T23:02:47.825Z,17.10
2022-07-26T23:05:52.295Z,17.01
2022-07-26T23:08:56.461Z,17.06
2022-07-26T23:12:00.286Z,17.07
2022-07-26T23:15:03.058Z,17.05
2022-07-26T23:18:05.673Z,16.92
2022-07-26T23:21:08.386Z,16.96
2022-07-26T23:24:12.455Z,16.88
2022-07-26T23:27:19.839Z,16.91
2022-07-26T23:30:23.079Z,16.93
2022-07-26T23:33:52.292Z,16.73
2022-07-26T23:36:48.322Z,16.72
2022-07-26T23:39:52.273Z,16.55
2022-07-26T23:42:56.134Z,16.58
2022-07-26T23:45:58.728Z,16.55
2022-07-26T23:49:01.496Z,16.49
2022-07-26T23:52:04.453Z,16.44
2022-07-26T23:55:10.346Z,16.40
2022-07-26T23:58:12.968Z,16.36
